createdAt,value
2024-05-09T00:00:22.502Z,9.457133
2024-05-09T00:01:19.702Z,9.457058
2024-05-09T00:02:17.675Z,9.457247
2024-05-09T00:03:17.628Z,9.457247
2024-05-09T00:04:17.615Z,9.457406
2024-05-09T00:05:17.687Z,9.457427
2024-05-09T00:06:17.664Z,9.457442
2024-05-09T00:07:17.546Z,9.457432
2024-05-09T00:08:17.600Z,9.457396
2024-05-09T00:09:18.553Z,9.457407
2024-05-09T00:10:25.365Z,9.457375
2024-05-09T00:11:19.608Z,9.457440
2024-05-09T00:12:17.641Z,9.457271
2024-05-09T00:13:17.503Z,9.457244
2024-05-09T00:14:17.609Z,9.457281
2024-05-09T00:15:17.488Z,9.457382
2024-05-09T00:16:17.482Z,9.457640
2024-05-09T00:17:17.575Z,9.457350
2024-05-09T00:18:17.715Z,9.457367
2024-05-09T00:19:17.481Z,9.457308
2024-05-09T00:20:24.155Z,9.457341
2024-05-09T00:21:19.413Z,9.457390
2024-05-09T00:22:17.403Z,9.457332
2024-05-09T00:23:17.439Z,9.457191
2024-05-09T00:24:17.381Z,9.457150
2024-05-09T00:25:17.371Z,9.457133
2024-05-09T00:26:17.469Z,9.457145
2024-05-09T00:27:17.392Z,9.457321
2024-05-09T00:28:17.356Z,9.457199
2024-05-09T00:29:17.346Z,9.457398
2024-05-09T00:30:24.402Z,9.457293
2024-05-09T00:31:19.414Z,9.457327
2024-05-09T00:32:17.430Z,9.457327
2024-05-09T00:33:17.492Z,9.457262
2024-05-09T00:34:17.374Z,9.457232
2024-05-09T00:35:17.282Z,9.457158
2024-05-09T00:36:17.258Z,9.457115
2024-05-09T00:37:17.264Z,9.457275
2024-05-09T00:38:17.262Z,9.457150
2024-05-09T00:39:17.220Z,9.457185
2024-05-09T00:40:26.505Z,9.457184
2024-05-09T00:41:19.912Z,9.457240
2024-05-09T00:42:18.225Z,9.457285
2024-05-09T00:43:17.218Z,9.457219
2024-05-09T00:44:17.209Z,9.457299
2024-05-09T00:45:17.172Z,9.457307
2024-05-09T00:46:17.170Z,9.457190
2024-05-09T00:47:17.258Z,9.457209
2024-05-09T00:48:19.873Z,9.457217
2024-05-09T00:49:17.292Z,9.457171
2024-05-09T00:50:22.987Z,9.457198
2024-05-09T00:51:19.150Z,9.457205
2024-05-09T00:52:17.093Z,9.457107
2024-05-09T00:53:17.166Z,9.457301
2024-05-09T00:54:17.063Z,9.457291
2024-05-09T00:55:17.076Z,9.457206
2024-05-09T00:56:17.125Z,9.457211
2024-05-09T00:57:17.034Z,9.457312
2024-05-09T00:58:17.033Z,9.457539
2024-05-09T00:59:17.125Z,9.457264
2024-05-09T01:00:26.209Z,9.457240
2024-05-09T01:01:19.017Z,9.457196
2024-05-09T01:02:17.130Z,9.457165
2024-05-09T01:03:17.254Z,9.457232
2024-05-09T01:04:17.006Z,9.457235
2024-05-09T01:05:17.060Z,9.457155
2024-05-09T01:06:16.959Z,9.457351
2024-05-09T01:07:16.932Z,9.457293
2024-05-09T01:08:17.059Z,9.457139
2024-05-09T01:09:16.943Z,9.457133
2024-05-09T01:10:21.317Z,9.457326
2024-05-09T01:11:19.001Z,9.457073
2024-05-09T01:12:16.995Z,9.457026
2024-05-09T01:13:16.884Z,9.457194
2024-05-09T01:14:16.939Z,9.457198
2024-05-09T01:15:16.887Z,9.457080
2024-05-09T01:16:16.849Z,9.457324
2024-05-09T01:17:16.928Z,9.456949
2024-05-09T01:18:16.961Z,9.456885
2024-05-09T01:19:16.942Z,9.456894
2024-05-09T01:20:22.862Z,9.456916
2024-05-09T01:21:17.847Z,9.457125
2024-05-09T01:22:16.798Z,9.457125
2024-05-09T01:23:16.919Z,9.457123
2024-05-09T01:24:16.804Z,9.457166
2024-05-09T01:25:16.758Z,9.457133
2024-05-09T01:26:16.768Z,9.457083
2024-05-09T01:27:16.736Z,9.456879
2024-05-09T01:28:16.741Z,9.457129
2024-05-09T01:29:16.801Z,9.457051
2024-05-09T01:30:21.103Z,9.456976
2024-05-09T01:31:18.698Z,9.456868
2024-05-09T01:32:16.792Z,9.457140
2024-05-09T01:33:16.825Z,9.457165
2024-05-09T01:34:16.732Z,9.457338
2024-05-09T01:35:16.657Z,9.457261
2024-05-09T01:36:16.636Z,9.457001
2024-05-09T01:37:16.643Z,9.457093
2024-05-09T01:38:16.702Z,9.457069
2024-05-09T01:39:16.681Z,9.457190
2024-05-09T01:40:22.079Z,9.457179
2024-05-09T01:41:18.604Z,9.457285
2024-05-09T01:42:16.626Z,9.457126
2024-05-09T01:43:16.594Z,9.457049
2024-05-09T01:44:16.634Z,9.457305
2024-05-09T01:45:16.539Z,9.457161
2024-05-09T01:46:16.538Z,9.457017
2024-05-09T01:47:16.802Z,9.457079
2024-05-09T01:48:16.971Z,9.457181
2024-05-09T01:49:16.631Z,9.457128
2024-05-09T01:50:16.762Z,9.457136
2024-05-09T01:51:17.526Z,9.457124
2024-05-09T01:52:16.481Z,9.457153
2024-05-09T01:53:16.512Z,9.457248
2024-05-09T01:54:16.455Z,9.457345
2024-05-09T01:55:16.430Z,9.457270
2024-05-09T01:56:16.464Z,9.457265
2024-05-09T01:57:16.409Z,9.457321
2024-05-09T01:58:16.400Z,9.457271
2024-05-09T01:59:16.425Z,9.457294
2024-05-09T02:00:25.854Z,9.457300
2024-05-09T02:01:17.490Z,9.457270
2024-05-09T02:02:16.472Z,9.457388
2024-05-09T02:03:17.809Z,9.457371
2024-05-09T02:04:16.701Z,9.457390
2024-05-09T02:05:16.564Z,9.457292
2024-05-09T02:06:16.355Z,9.457254
2024-05-09T02:07:16.297Z,9.457319
2024-05-09T02:08:16.630Z,9.457334
2024-05-09T02:09:16.274Z,9.457261
2024-05-09T02:10:20.584Z,9.457178
2024-05-09T02:11:18.367Z,9.457161
2024-05-09T02:12:16.477Z,9.457282
2024-05-09T02:13:16.805Z,9.457087
2024-05-09T02:14:16.271Z,9.457129
2024-05-09T02:15:16.236Z,9.457129
2024-05-09T02:16:16.210Z,9.457164
2024-05-09T02:17:16.340Z,9.457184
2024-05-09T02:18:16.406Z,9.457206
2024-05-09T02:19:16.375Z,9.457187
2024-05-09T02:20:22.727Z,9.457280
2024-05-09T02:21:18.159Z,9.457273
2024-05-09T02:22:16.131Z,9.457282
2024-05-09T02:23:16.192Z,9.457215
2024-05-09T02:24:16.135Z,9.457296
2024-05-09T02:25:16.100Z,9.457271
2024-05-09T02:26:16.204Z,9.457229
2024-05-09T02:27:16.095Z,9.457228
2024-05-09T02:28:16.073Z,9.457188
2024-05-09T02:29:16.098Z,9.457277
2024-05-09T02:30:25.798Z,9.457260
2024-05-09T02:31:17.033Z,9.457221
2024-05-09T02:32:16.085Z,9.457187
2024-05-09T02:33:16.167Z,9.457227
2024-05-09T02:34:16.062Z,9.457181
2024-05-09T02:35:16.081Z,9.457243
2024-05-09T02:36:16.995Z,9.457311
2024-05-09T02:37:15.961Z,9.457314
2024-05-09T02:38:16.042Z,9.457240
2024-05-09T02:39:15.958Z,9.457287
2024-05-09T02:40:21.652Z,9.457210
2024-05-09T02:41:16.982Z,9.457244
2024-05-09T02:42:15.922Z,9.457265
2024-05-09T02:43:15.927Z,9.457157
2024-05-09T02:44:15.958Z,9.457151
2024-05-09T02:45:15.875Z,9.457154
2024-05-09T02:46:15.872Z,9.457216
2024-05-09T02:47:16.034Z,9.457201
2024-05-09T02:48:16.164Z,9.457240
2024-05-09T02:49:15.976Z,9.457253
2024-05-09T02:50:23.034Z,9.457265
2024-05-09T02:51:17.832Z,9.457265
2024-05-09T02:52:15.821Z,9.457308
2024-05-09T02:53:15.812Z,9.457316
2024-05-09T02:54:15.767Z,9.457296
2024-05-09T02:55:15.762Z,9.457320
2024-05-09T02:56:15.802Z,9.457187
2024-05-09T02:57:15.775Z,9.457191
2024-05-09T02:58:15.721Z,9.457248
2024-05-09T02:59:15.785Z,9.457282
2024-05-09T03:00:22.552Z,9.457191
2024-05-09T03:01:17.784Z,9.457125
2024-05-09T03:02:15.777Z,9.457151
2024-05-09T03:03:16.022Z,9.457263
2024-05-09T03:04:15.719Z,9.457289
2024-05-09T03:05:15.679Z,9.457204
2024-05-09T03:06:15.654Z,9.457279
2024-05-09T03:07:16.306Z,9.457299
2024-05-09T03:08:15.615Z,9.457247
2024-05-09T03:09:15.596Z,9.457215
2024-05-09T03:10:22.244Z,9.457177
2024-05-09T03:11:16.639Z,9.457208
2024-05-09T03:12:15.569Z,9.457128
2024-05-09T03:13:16.378Z,9.457252
2024-05-09T03:14:15.610Z,9.457221
2024-05-09T03:15:15.548Z,9.457224
2024-05-09T03:16:15.540Z,9.457233
2024-05-09T03:17:15.565Z,9.457245
2024-05-09T03:18:15.849Z,9.457307
2024-05-09T03:19:15.620Z,9.457249
2024-05-09T03:20:23.208Z,9.457338
2024-05-09T03:21:16.522Z,9.457285
2024-05-09T03:22:15.453Z,9.457258
2024-05-09T03:23:15.481Z,9.457226
2024-05-09T03:24:15.416Z,9.457300
2024-05-09T03:25:15.440Z,9.457283
2024-05-09T03:26:15.436Z,9.457333
2024-05-09T03:27:15.407Z,9.457321
2024-05-09T03:28:15.371Z,9.457376
2024-05-09T03:29:15.496Z,9.457262
2024-05-09T03:30:28.828Z,9.457211
2024-05-09T03:31:17.350Z,9.457153
2024-05-09T03:32:15.393Z,9.457248
2024-05-09T03:33:16.147Z,9.457232
2024-05-09T03:34:15.334Z,9.457132
2024-05-09T03:35:15.351Z,9.457134
2024-05-09T03:36:15.281Z,9.457175
2024-05-09T03:37:15.296Z,9.457317
2024-05-09T03:38:15.566Z,9.457377
2024-05-09T03:39:15.268Z,9.457308
2024-05-09T03:40:20.872Z,9.457273
2024-05-09T03:41:16.312Z,9.457070
2024-05-09T03:42:15.214Z,9.457051
2024-05-09T03:43:15.253Z,9.457129
2024-05-09T03:44:15.266Z,9.457151
2024-05-09T03:45:15.179Z,9.457259
2024-05-09T03:46:15.182Z,9.457329
2024-05-09T03:47:15.273Z,9.457284
2024-05-09T03:48:15.355Z,9.457099
2024-05-09T03:49:15.403Z,9.457103
2024-05-09T03:50:22.158Z,9.457229
2024-05-09T03:51:17.132Z,9.457322
2024-05-09T03:52:15.120Z,9.457376
2024-05-09T03:53:15.212Z,9.457265
2024-05-09T03:54:15.072Z,9.457193
2024-05-09T03:55:15.091Z,9.457183
2024-05-09T03:56:15.081Z,9.457317
2024-05-09T03:57:15.066Z,9.457287
2024-05-09T03:58:15.069Z,9.457257
2024-05-09T03:59:15.193Z,9.457246
2024-05-09T04:00:21.945Z,9.457242
2024-05-09T04:01:16.054Z,9.457344
2024-05-09T04:02:15.224Z,9.457176
2024-05-09T04:03:15.299Z,9.457272
2024-05-09T04:04:15.007Z,9.457141
2024-05-09T04:05:15.015Z,9.457089
2024-05-09T04:06:14.990Z,9.457191
2024-05-09T04:07:14.949Z,9.457097
2024-05-09T04:08:15.389Z,9.457051
2024-05-09T04:09:14.912Z,9.456930
2024-05-09T04:10:23.701Z,9.457088
2024-05-09T04:11:16.984Z,9.457190
2024-05-09T04:12:14.918Z,9.457185
2024-05-09T04:13:14.886Z,9.457056
2024-05-09T04:14:14.915Z,9.456954
2024-05-09T04:15:14.850Z,9.457005
2024-05-09T04:16:14.850Z,9.456965
2024-05-09T04:17:14.888Z,9.456931
2024-05-09T04:18:14.903Z,9.456919
2024-05-09T04:19:15.022Z,9.457121
2024-05-09T04:20:24.582Z,9.457075
2024-05-09T04:21:16.867Z,9.457069
2024-05-09T04:22:14.763Z,9.457296
2024-05-09T04:23:15.095Z,9.457256
2024-05-09T04:24:14.737Z,9.457161
2024-05-09T04:25:14.743Z,9.457272
2024-05-09T04:26:14.762Z,9.457157
2024-05-09T04:27:14.706Z,9.457166
2024-05-09T04:28:14.767Z,9.457234
2024-05-09T04:29:14.815Z,9.457309
2024-05-09T04:30:21.736Z,9.457233
2024-05-09T04:31:16.658Z,9.457221
2024-05-09T04:32:14.751Z,9.457246
2024-05-09T04:33:15.357Z,9.457167
2024-05-09T04:34:14.832Z,9.457215
2024-05-09T04:35:14.688Z,9.457129
2024-05-09T04:36:14.606Z,9.457177
2024-05-09T04:37:14.588Z,9.457370
2024-05-09T04:38:15.293Z,9.457214
2024-05-09T04:39:14.627Z,9.457231
2024-05-09T04:40:24.206Z,9.457260
2024-05-09T04:41:16.569Z,9.457192
2024-05-09T04:42:14.535Z,9.457167
2024-05-09T04:43:14.530Z,9.457347
2024-05-09T04:44:14.555Z,9.457216
2024-05-09T04:45:14.504Z,9.457217
2024-05-09T04:46:14.493Z,9.457253
2024-05-09T04:47:14.550Z,9.457359
2024-05-09T04:48:14.747Z,9.457315
2024-05-09T04:49:14.686Z,9.457198
2024-05-09T04:50:21.208Z,9.457218
2024-05-09T04:51:16.463Z,9.457384
2024-05-09T04:52:14.413Z,9.457341
2024-05-09T04:53:14.496Z,9.457311
2024-05-09T04:54:26.044Z,9.457215
2024-05-09T04:55:16.397Z,9.457179
2024-05-09T04:56:14.446Z,9.457243
2024-05-09T04:57:14.369Z,9.457240
2024-05-09T04:58:14.367Z,9.457243
2024-05-09T04:59:14.377Z,9.457371
2024-05-09T05:00:18.085Z,9.457292
2024-05-09T05:01:16.423Z,9.457307
2024-05-09T05:02:14.601Z,9.457253
2024-05-09T05:03:15.942Z,9.457219
2024-05-09T05:04:14.343Z,9.457244
2024-05-09T05:05:14.361Z,9.457161
2024-05-09T05:06:14.272Z,9.457195
2024-05-09T05:07:14.280Z,9.457266
2024-05-09T05:08:14.723Z,9.457330
2024-05-09T05:09:14.235Z,9.457320
2024-05-09T05:10:21.426Z,9.457254
2024-05-09T05:11:16.266Z,9.457303
2024-05-09T05:12:14.423Z,9.457250
2024-05-09T05:13:14.228Z,9.457245
2024-05-09T05:14:14.208Z,9.457257
2024-05-09T05:15:15.169Z,9.457272
2024-05-09T05:16:14.170Z,9.457299
2024-05-09T05:17:14.290Z,9.457255
2024-05-09T05:18:14.195Z,9.457313
2024-05-09T05:19:16.984Z,9.457257
2024-05-09T05:20:20.876Z,9.457248
2024-05-09T05:21:16.205Z,9.457304
2024-05-09T05:22:14.105Z,9.457255
2024-05-09T05:23:14.339Z,9.457386
2024-05-09T05:24:14.067Z,9.457244
2024-05-09T05:25:14.061Z,9.457225
2024-05-09T05:26:14.120Z,9.457214
2024-05-09T05:27:14.036Z,9.457285
2024-05-09T05:28:14.054Z,9.457253
2024-05-09T05:29:14.705Z,9.457188
2024-05-09T05:30:21.149Z,9.457231
2024-05-09T05:31:16.049Z,9.457251
2024-05-09T05:32:14.186Z,9.457214
2024-05-09T05:33:14.311Z,9.457188
2024-05-09T05:34:14.025Z,9.457165
2024-05-09T05:35:14.044Z,9.457295
2024-05-09T05:36:13.968Z,9.457294
2024-05-09T05:37:14.937Z,9.457356
2024-05-09T05:38:14.017Z,9.457350
2024-05-09T05:39:13.925Z,9.457272
2024-05-09T05:40:24.626Z,9.457331
2024-05-09T05:41:15.938Z,9.457316
2024-05-09T05:42:13.873Z,9.457271
2024-05-09T05:43:13.873Z,9.457299
2024-05-09T05:44:13.910Z,9.457342
2024-05-09T05:45:13.871Z,9.457293
2024-05-09T05:46:13.834Z,9.457294
2024-05-09T05:47:13.982Z,9.457264
2024-05-09T05:48:14.124Z,9.457286
2024-05-09T05:49:14.075Z,9.457297
2024-05-09T05:50:23.796Z,9.457254
2024-05-09T05:51:16.052Z,9.457313
2024-05-09T05:52:13.790Z,9.457298
2024-05-09T05:53:13.934Z,9.457228
2024-05-09T05:54:13.767Z,9.457332
2024-05-09T05:55:14.757Z,9.457413
2024-05-09T05:56:13.818Z,9.457273
2024-05-09T05:57:13.754Z,9.457300
2024-05-09T05:58:13.749Z,9.457262
2024-05-09T05:59:15.498Z,9.457380
2024-05-09T06:01:14.739Z,9.457290
2024-05-09T06:02:13.995Z,9.457302
2024-05-09T06:03:14.352Z,9.457271
2024-05-09T06:04:13.760Z,9.457299
2024-05-09T06:05:13.858Z,9.457334
2024-05-09T06:06:13.744Z,9.457359
2024-05-09T06:07:13.675Z,9.457291
2024-05-09T06:08:14.039Z,9.457257
2024-05-09T06:09:13.711Z,9.457313
2024-05-09T06:10:20.974Z,9.457236
2024-05-09T06:11:15.697Z,9.457338
2024-05-09T06:12:13.793Z,9.457302
2024-05-09T06:13:14.379Z,9.457265
2024-05-09T06:14:13.727Z,9.457261
2024-05-09T06:15:13.550Z,9.457284
2024-05-09T06:16:13.544Z,9.457285
2024-05-09T06:17:13.620Z,9.457304
2024-05-09T06:18:13.886Z,9.457270
2024-05-09T06:19:13.841Z,9.457274
2024-05-09T06:20:20.526Z,9.457262
2024-05-09T06:21:15.644Z,9.457309
2024-05-09T06:22:13.508Z,9.457336
2024-05-09T06:23:13.789Z,9.457355
2024-05-09T06:24:13.467Z,9.457316
2024-05-09T06:25:13.468Z,9.457336
2024-05-09T06:26:13.512Z,9.457301
2024-05-09T06:27:13.478Z,9.457298
2024-05-09T06:28:13.419Z,9.457251
2024-05-09T06:29:13.474Z,9.457281
2024-05-09T06:30:24.896Z,9.457270
2024-05-09T06:31:15.427Z,9.457291
2024-05-09T06:32:13.476Z,9.457408
2024-05-09T06:33:15.712Z,9.457373
2024-05-09T06:34:13.642Z,9.457312
2024-05-09T06:35:13.427Z,9.457296
2024-05-09T06:36:13.371Z,9.457322
2024-05-09T06:37:13.346Z,9.457335
2024-05-09T06:38:13.423Z,9.457330
2024-05-09T06:39:13.325Z,9.457340
2024-05-09T06:40:17.428Z,9.457346
2024-05-09T06:41:13.358Z,9.457335
2024-05-09T06:42:13.304Z,9.457294
2024-05-09T06:43:13.467Z,9.457275
2024-05-09T06:44:13.362Z,9.457302
2024-05-09T06:45:13.300Z,9.457324
2024-05-09T06:46:13.253Z,9.457294
2024-05-09T06:47:13.309Z,9.457288
2024-05-09T06:48:13.379Z,9.457290
2024-05-09T06:49:13.401Z,9.457312
2024-05-09T06:50:20.424Z,9.457264
2024-05-09T06:51:15.233Z,9.457307
2024-05-09T06:52:13.203Z,9.457287
2024-05-09T06:53:13.195Z,9.457255
2024-05-09T06:54:13.193Z,9.457213
2024-05-09T06:55:13.161Z,9.457226
2024-05-09T06:56:14.254Z,9.457323
2024-05-09T06:57:13.127Z,9.457328
2024-05-09T06:58:13.127Z,9.457279
2024-05-09T06:59:13.192Z,9.457257
2024-05-09T07:00:19.139Z,9.457326
2024-05-09T07:01:14.300Z,9.457411
2024-05-09T07:02:13.162Z,9.457313
2024-05-09T07:03:15.298Z,9.457349
2024-05-09T07:04:13.383Z,9.457385
2024-05-09T07:05:13.302Z,9.457281
2024-05-09T07:06:13.088Z,9.457207
2024-05-09T07:07:13.034Z,9.457230
2024-05-09T07:08:13.304Z,9.457249
2024-05-09T07:09:13.032Z,9.457311
2024-05-09T07:10:21.518Z,9.457345
2024-05-09T07:11:15.092Z,9.457319
2024-05-09T07:12:13.088Z,9.457150
2024-05-09T07:13:13.381Z,9.457264
2024-05-09T07:14:13.014Z,9.457271
2024-05-09T07:15:12.953Z,9.457276
2024-05-09T07:16:12.934Z,9.457278
2024-05-09T07:17:13.004Z,9.457306
2024-05-09T07:18:13.689Z,9.457269
2024-05-09T07:19:13.072Z,9.457248
2024-05-09T07:20:22.996Z,9.457223
2024-05-09T07:21:14.951Z,9.457204
2024-05-09T07:22:12.903Z,9.457389
2024-05-09T07:23:13.345Z,9.457323
2024-05-09T07:24:12.883Z,9.457292
2024-05-09T07:25:12.845Z,9.457376
2024-05-09T07:26:12.888Z,9.457339
2024-05-09T07:27:12.865Z,9.457291
2024-05-09T07:28:12.818Z,9.457245
2024-05-09T07:29:12.904Z,9.457292
2024-05-09T07:30:16.719Z,9.457266
2024-05-09T07:31:14.792Z,9.457193
2024-05-09T07:32:12.864Z,9.457275
2024-05-09T07:33:12.978Z,9.457260
2024-05-09T07:34:13.028Z,9.457211
2024-05-09T07:35:12.798Z,9.457294
2024-05-09T07:36:12.910Z,9.457254
2024-05-09T07:37:12.858Z,9.457288
2024-05-09T07:38:12.845Z,9.457320
2024-05-09T07:39:12.706Z,9.457302
2024-05-09T07:40:21.247Z,9.457298
2024-05-09T07:41:13.738Z,9.457331
2024-05-09T07:42:12.734Z,9.457264
2024-05-09T07:43:12.672Z,9.457271
2024-05-09T07:44:12.738Z,9.457298
2024-05-09T07:45:29.829Z,9.457436
2024-05-09T07:48:28.070Z,9.457305
2024-05-09T07:49:45.145Z,9.457247
2024-05-09T07:53:29.328Z,9.457311
2024-05-09T07:53:37.739Z,9.457320
2024-05-09T07:54:14.788Z,9.457275
2024-05-09T07:55:12.666Z,9.457285
2024-05-09T07:56:12.812Z,9.457268
2024-05-09T07:57:12.594Z,9.457284
2024-05-09T07:58:12.538Z,9.457291
2024-05-09T07:59:12.512Z,9.457302
2024-05-09T08:00:17.225Z,9.457308
2024-05-09T08:01:12.832Z,9.457287
2024-05-09T08:02:12.617Z,9.457312
2024-05-09T08:03:12.517Z,9.457315
2024-05-09T08:04:12.542Z,9.457337
2024-05-09T08:05:12.758Z,9.457359
2024-05-09T08:06:12.442Z,9.457326
2024-05-09T08:07:12.487Z,9.457283
2024-05-09T08:08:12.415Z,9.457232
2024-05-09T08:09:16.974Z,9.457254
2024-05-09T08:10:18.793Z,9.457331
2024-05-09T08:11:13.435Z,9.457290
2024-05-09T08:12:12.388Z,9.457273
2024-05-09T08:13:12.537Z,9.457253
2024-05-09T08:14:12.368Z,9.457316
2024-05-09T08:15:12.356Z,9.457253
2024-05-09T08:16:12.409Z,9.457308
2024-05-09T08:17:12.364Z,9.457271
2024-05-09T08:18:12.464Z,9.457319
2024-05-09T08:19:12.397Z,9.457278
2024-05-09T08:20:15.910Z,9.457233
2024-05-09T08:21:13.281Z,9.457243
2024-05-09T08:22:12.377Z,9.457314
2024-05-09T08:23:12.290Z,9.457264
2024-05-09T08:24:12.278Z,9.457308
2024-05-09T08:25:14.137Z,9.457226
2024-05-09T08:26:13.244Z,9.457227
2024-05-09T08:27:12.267Z,9.457220
2024-05-09T08:28:12.487Z,9.457273
2024-05-09T08:29:12.379Z,9.457279
2024-05-09T08:30:21.336Z,9.457253
2024-05-09T08:31:14.305Z,9.457301
2024-05-09T08:32:12.190Z,9.457286
2024-05-09T08:33:12.288Z,9.457273
2024-05-09T08:34:12.317Z,9.457270
2024-05-09T08:35:12.176Z,9.457273
2024-05-09T08:36:12.175Z,9.457334
2024-05-09T08:37:19.430Z,9.457239
2024-05-09T08:38:14.178Z,9.457241
2024-05-09T08:39:12.107Z,9.457367
2024-05-09T08:40:23.458Z,9.457223
2024-05-09T08:41:14.094Z,9.457289
2024-05-09T08:42:12.104Z,9.457311
2024-05-09T08:43:13.079Z,9.457294
2024-05-09T08:44:12.066Z,9.457268
2024-05-09T08:45:12.039Z,9.457312
2024-05-09T08:46:12.129Z,9.457305
2024-05-09T08:47:12.077Z,9.457277
2024-05-09T08:48:12.173Z,9.457290
2024-05-09T08:49:12.140Z,9.457370
2024-05-09T08:50:24.076Z,9.457305
2024-05-09T08:51:13.091Z,9.457264
2024-05-09T08:52:12.016Z,9.457242
2024-05-09T08:53:12.030Z,9.457226
2024-05-09T08:54:11.940Z,9.457319
2024-05-09T08:55:12.015Z,9.457259
2024-05-09T08:56:12.215Z,9.457305
2024-05-09T08:57:11.909Z,9.457323
2024-05-09T08:58:12.335Z,9.457298
2024-05-09T08:59:11.918Z,9.457304
2024-05-09T09:00:15.116Z,9.457287
2024-05-09T09:01:13.977Z,9.457272
2024-05-09T09:02:11.998Z,9.457280
2024-05-09T09:03:11.893Z,9.457155
2024-05-09T09:04:12.029Z,9.457147
2024-05-09T09:05:11.915Z,9.457270
2024-05-09T09:06:11.874Z,9.457224
2024-05-09T09:07:11.863Z,9.457312
2024-05-09T09:08:11.800Z,9.457222
2024-05-09T09:09:11.787Z,9.457272
2024-05-09T09:11:11.818Z,9.457228
2024-05-09T09:12:11.759Z,9.457238
2024-05-09T09:13:11.968Z,9.457182
2024-05-09T09:14:11.783Z,9.457218
2024-05-09T09:15:11.751Z,9.457246
2024-05-09T09:16:11.837Z,9.457246
2024-05-09T09:17:11.752Z,9.457189
2024-05-09T09:18:12.343Z,9.457277
2024-05-09T09:19:12.834Z,9.457213
2024-05-09T09:20:16.444Z,9.457298
2024-05-09T09:21:13.695Z,9.457212
2024-05-09T09:22:11.694Z,9.457204
2024-05-09T09:23:11.677Z,9.457130
2024-05-09T09:24:11.678Z,9.457237
2024-05-09T09:25:11.808Z,9.457287
2024-05-09T09:26:11.639Z,9.457234
2024-05-09T09:27:11.612Z,9.457241
2024-05-09T09:28:11.664Z,9.457189
2024-05-09T09:29:11.620Z,9.457281
2024-05-09T09:30:27.273Z,9.457234
2024-05-09T09:31:13.601Z,9.457253
2024-05-09T09:32:11.563Z,9.457208
2024-05-09T09:33:12.023Z,9.457216
2024-05-09T09:34:11.694Z,9.457185
2024-05-09T09:35:11.543Z,9.457081
2024-05-09T09:36:11.736Z,9.457120
2024-05-09T09:37:12.639Z,9.457121
2024-05-09T09:38:11.546Z,9.457128
2024-05-09T09:39:11.504Z,9.457172
2024-05-09T09:40:13.318Z,9.457265
2024-05-09T09:41:11.530Z,9.457196
2024-05-09T09:42:11.501Z,9.457201
2024-05-09T09:43:11.681Z,9.457156
2024-05-09T09:44:11.446Z,9.457261
2024-05-09T09:45:11.452Z,9.457159
2024-05-09T09:46:12.787Z,9.457165
2024-05-09T09:47:11.502Z,9.457213
2024-05-09T09:48:11.655Z,9.457233
2024-05-09T09:49:11.543Z,9.457260
2024-05-09T09:50:14.563Z,9.457278
2024-05-09T09:51:13.377Z,9.457257
2024-05-09T09:52:11.555Z,9.457318
2024-05-09T09:53:11.367Z,9.457265
2024-05-09T09:54:11.348Z,9.457248
2024-05-09T09:55:11.485Z,9.457120
2024-05-09T09:56:11.348Z,9.457221
2024-05-09T09:57:11.350Z,9.457289
2024-05-09T09:58:13.917Z,9.457252
2024-05-09T09:59:11.294Z,9.457250
2024-05-09T10:00:12.013Z,9.457245
2024-05-09T10:01:13.418Z,9.457251
2024-05-09T10:02:11.470Z,9.457275
2024-05-09T10:03:11.360Z,9.457216
2024-05-09T10:04:11.357Z,9.457170
2024-05-09T10:05:11.373Z,9.457205
2024-05-09T10:06:11.247Z,9.457278
2024-05-09T10:07:11.331Z,9.457127
2024-05-09T10:08:11.224Z,9.457229
2024-05-09T10:09:11.202Z,9.457209
2024-05-09T10:10:13.901Z,9.457268
2024-05-09T10:11:13.236Z,9.457306
2024-05-09T10:12:11.290Z,9.457322
2024-05-09T10:13:11.230Z,9.457222
2024-05-09T10:14:11.160Z,9.457216
2024-05-09T10:15:11.162Z,9.457224
2024-05-09T10:16:11.611Z,9.457273
2024-05-09T10:17:11.115Z,9.457130
2024-05-09T10:18:11.349Z,9.457252
2024-05-09T10:19:11.174Z,9.457202
2024-05-09T10:20:18.353Z,9.457087
2024-05-09T10:21:13.187Z,9.457182
2024-05-09T10:22:11.139Z,9.457225
2024-05-09T10:23:11.077Z,9.457203
2024-05-09T10:24:11.071Z,9.457304
2024-05-09T10:25:11.074Z,9.457271
2024-05-09T10:26:11.028Z,9.457256
2024-05-09T10:27:11.010Z,9.457259
2024-05-09T10:28:11.149Z,9.457221
2024-05-09T10:29:11.023Z,9.457226
2024-05-09T10:30:17.705Z,9.457245
2024-05-09T10:31:13.406Z,9.457288
2024-05-09T10:32:10.966Z,9.457259
2024-05-09T10:33:11.144Z,9.457330
2024-05-09T10:34:11.237Z,9.457305
2024-05-09T10:35:11.022Z,9.457168
2024-05-09T10:36:10.925Z,9.457302
2024-05-09T10:37:10.951Z,9.457316
2024-05-09T10:38:10.932Z,9.457229
2024-05-09T10:39:14.339Z,9.457193
2024-05-09T10:40:42.823Z,9.457137
2024-05-09T10:41:10.931Z,9.457237
2024-05-09T10:42:10.883Z,9.457274
2024-05-09T10:43:10.921Z,9.457309
2024-05-09T10:44:10.859Z,9.457291
2024-05-09T10:45:10.843Z,9.457239
2024-05-09T10:46:11.200Z,9.457223
2024-05-09T10:47:10.852Z,9.457253
2024-05-09T10:48:10.983Z,9.457206
2024-05-09T10:49:10.840Z,9.457266
2024-05-09T10:50:21.986Z,9.457221
2024-05-09T10:51:12.798Z,9.457303
2024-05-09T10:52:10.882Z,9.457089
2024-05-09T10:53:10.813Z,9.457204
2024-05-09T10:54:10.769Z,9.457214
2024-05-09T10:55:10.794Z,9.457111
2024-05-09T10:56:10.779Z,9.457183
2024-05-09T10:57:10.747Z,9.457207
2024-05-09T10:58:10.804Z,9.457239
2024-05-09T10:59:10.710Z,9.457196
2024-05-09T11:00:18.909Z,9.457110
2024-05-09T11:01:12.869Z,9.457206
2024-05-09T11:02:11.099Z,9.457144
2024-05-09T11:03:10.688Z,9.457168
2024-05-09T11:04:10.787Z,9.457199
2024-05-09T11:05:10.827Z,9.457256
2024-05-09T11:06:10.681Z,9.457183
2024-05-09T11:07:10.710Z,9.457170
2024-05-09T11:08:10.636Z,9.457170
2024-05-09T11:09:10.631Z,9.457205
2024-05-09T11:10:14.514Z,9.457172
2024-05-09T11:11:11.615Z,9.457211
2024-05-09T11:12:10.690Z,9.457283
2024-05-09T11:13:10.641Z,9.457316
2024-05-09T11:14:10.566Z,9.457264
2024-05-09T11:15:10.568Z,9.457288
2024-05-09T11:16:10.674Z,9.457201
2024-05-09T11:17:10.548Z,9.457215
2024-05-09T11:18:10.609Z,9.457231
2024-05-09T11:19:10.612Z,9.457263
2024-05-09T11:20:16.759Z,9.457303
2024-05-09T11:21:13.354Z,9.457303
2024-05-09T11:22:10.561Z,9.457431
2024-05-09T11:23:10.488Z,9.457309
2024-05-09T11:24:11.610Z,9.457090
2024-05-09T11:25:11.523Z,9.457089
2024-05-09T11:26:10.481Z,9.457162
2024-05-09T11:27:10.460Z,9.457158
2024-05-09T11:28:10.549Z,9.457184
2024-05-09T11:29:10.445Z,9.457138
2024-05-09T11:30:17.246Z,9.457121
2024-05-09T11:31:12.414Z,9.457283
2024-05-09T11:32:10.457Z,9.457314
2024-05-09T11:33:10.435Z,9.457330
2024-05-09T11:34:10.437Z,9.457245
2024-05-09T11:35:10.369Z,9.457227
2024-05-09T11:36:10.359Z,9.457207
2024-05-09T11:37:10.406Z,9.457199
2024-05-09T11:38:10.358Z,9.457192
2024-05-09T11:39:10.365Z,9.457148
2024-05-09T11:40:16.824Z,9.457184
2024-05-09T11:41:12.303Z,9.457140
2024-05-09T11:42:10.287Z,9.457206
2024-05-09T11:43:10.316Z,9.457231
2024-05-09T11:44:10.280Z,9.457243
2024-05-09T11:45:10.266Z,9.457246
2024-05-09T11:46:10.279Z,9.457307
2024-05-09T11:47:10.262Z,9.457252
2024-05-09T11:48:10.295Z,9.457294
2024-05-09T11:49:10.331Z,9.457289
2024-05-09T11:50:16.021Z,9.457342